Time;durP1;ratioP1;P1;durP2;ratioP2;P2;SDS_P1;SDS_P2;PMS_P1;PMS_P2;Temp;Humidity;BMP_temperature;BMP_pressure;BME280_temperature;BME280_humidity;BME280_pressure;Samples;Min_cycle;Max_cycle;Signal;HPM_P1;HPM_P2
2022/04/10 00:00:48;;;;;;;19.90;7.40;;;1.80;99.90;;;2.60;100.00;98331.50;4984570;28;20461;-80
2022/04/10 00:03:19;;;;;;;20.77;8.33;;;1.80;99.90;;;2.58;100.00;98328.22;4983604;28;20485;-82
2022/04/10 00:05:49;;;;;;;16.90;6.97;;;1.70;99.90;;;2.57;100.00;98324.03;4982300;28;20469;-80
2022/04/10 00:08:20;;;;;;;11.17;4.63;;;1.60;99.90;;;2.53;100.00;98324.28;4983006;28;20448;-80
2022/04/10 00:10:50;;;;;;;8.07;4.30;;;1.70;99.90;;;2.49;100.00;98328.06;4983419;28;20468;-80
2022/04/10 00:13:20;;;;;;;7.70;3.67;;;1.50;99.90;;;2.49;100.00;98329.84;4984692;28;20466;-80
2022/04/10 00:15:51;;;;;;;9.13;3.43;;;1.50;99.90;;;2.50;100.00;98323.72;4981792;28;20454;-80
2022/04/10 00:18:21;;;;;;;6.87;3.30;;;1.60;99.90;;;2.51;100.00;98327.94;4983563;28;20461;-80
2022/04/10 00:20:51;;;;;;;5.30;3.03;;;1.70;99.90;;;2.52;100.00;98329.56;4983569;28;20447;-81
2022/04/10 00:23:22;;;;;;;7.80;4.07;;;1.60;99.90;;;2.49;100.00;98335.81;4983569;28;20498;-80
2022/04/10 00:25:53;;;;;;;6.40;3.53;;;1.60;99.90;;;2.48;100.00;98323.84;4982371;28;20434;-80
2022/04/10 00:28:22;;;;;;;3.20;2.90;;;1.60;99.90;;;2.47;100.00;98332.53;4983632;28;20516;-80
2022/04/10 00:30:52;;;;;;;3.93;3.20;;;1.60;99.90;;;2.47;100.00;98337.69;4980064;28;20454;-80
2022/04/10 00:33:23;;;;;;;7.30;3.63;;;1.60;99.90;;;2.47;100.00;98336.88;4981138;28;20456;-81
2022/04/10 00:35:53;;;;;;;5.50;3.30;;;1.70;99.90;;;2.39;100.00;98334.97;4981903;28;20445;-80
2022/04/10 00:38:22;;;;;;;10.90;3.60;;;1.70;99.90;;;2.37;100.00;98330.84;4982336;28;20872;-80
2022/04/10 00:40:53;;;;;;;5.13;3.20;;;1.60;99.90;;;2.34;100.00;98329.34;4982827;28;20455;-81
2022/04/10 00:43:28;;;;;;;5.73;3.97;;;1.60;99.90;;;2.36;100.00;98326.66;4981160;28;20959;-80
2022/04/10 00:46:00;;;;;;;8.33;3.93;;;1.50;99.90;;;2.35;100.00;98330.19;4980730;28;20456;-81
2022/04/10 00:48:31;;;;;;;6.23;3.20;;;1.50;99.90;;;2.31;100.00;98329.63;4982284;28;20473;-80
2022/04/10 00:53:50;;;;;;;5.60;3.13;;;1.50;99.90;;;2.25;100.00;98334.47;4981019;28;20450;-81
2022/04/10 00:56:19;;;;;;;6.53;3.90;;;1.50;99.90;;;2.23;100.00;98339.75;4982762;28;20519;-80
2022/04/10 00:58:48;;;;;;;6.53;3.90;;;1.40;99.90;;;2.25;100.00;98337.88;4983964;28;20475;-80
2022/04/10 01:01:22;;;;;;;4.23;3.83;;;1.40;99.90;;;2.26;100.00;98339.50;4984983;28;20499;-80
2022/04/10 01:03:52;;;;;;;7.13;4.13;;;1.40;99.90;;;2.26;100.00;98343.81;4981203;28;20596;-80
2022/04/10 01:06:22;;;;;;;6.23;4.70;;;1.40;99.90;;;2.26;100.00;98349.00;4981254;28;20559;-80
2022/04/10 01:08:51;;;;;;;6.00;4.13;;;1.50;99.90;;;2.25;100.00;98343.03;4983497;28;20442;-80
2022/04/10 01:11:21;;;;;;;7.13;4.10;;;1.40;99.90;;;2.24;100.00;98348.31;4982540;28;20481;-80
2022/04/10 01:13:54;;;;;;;6.03;3.83;;;1.40;99.90;;;2.20;100.00;98334.84;4980828;28;20533;-80
2022/04/10 01:16:26;;;;;;;6.13;4.10;;;1.40;99.90;;;2.15;100.00;98346.50;4983968;28;20455;-80
2022/04/10 01:18:56;;;;;;;4.70;3.50;;;1.40;99.90;;;2.10;100.00;98340.91;4983288;28;20452;-80
2022/04/10 01:21:28;;;;;;;4.57;3.57;;;1.40;99.90;;;2.08;100.00;98341.03;4980694;28;20961;-80
2022/04/10 01:23:59;;;;;;;8.10;3.60;;;1.40;99.90;;;2.10;100.00;98348.63;4980644;28;20480;-80
2022/04/10 01:26:29;;;;;;;3.73;3.30;;;1.30;99.90;;;2.08;100.00;98346.19;4983521;28;20469;-80
2022/04/10 01:29:01;;;;;;;6.47;3.87;;;1.20;99.90;;;2.05;100.00;98338.69;4982614;28;20466;-80
2022/04/10 01:31:33;;;;;;;7.60;3.50;;;1.20;99.90;;;2.08;100.00;98345.38;4981419;28;20489;-80
2022/04/10 01:34:05;;;;;;;6.50;3.57;;;1.20;99.90;;;2.05;100.00;98338.69;4982941;28;20459;-80
2022/04/10 01:36:37;;;;;;;4.60;3.67;;;1.10;99.90;;;2.04;100.00;98339.66;4978727;28;20941;-81
2022/04/10 01:39:11;;;;;;;6.33;2.97;;;1.10;99.90;;;2.02;100.00;98354.41;4977363;28;21073;-80
2022/04/10 01:41:41;;;;;;;5.33;4.13;;;1.10;99.90;;;2.03;100.00;98348.31;4976251;28;20949;-80
2022/04/10 01:44:12;;;;;;;5.20;3.00;;;1.10;99.90;;;2.03;100.00;98356.06;4977720;28;20882;-80
2022/04/10 01:46:41;;;;;;;8.07;3.27;;;1.20;99.90;;;2.03;100.00;98354.31;4976582;28;20456;-80
2022/04/10 01:49:11;;;;;;;5.00;3.70;;;1.20;99.90;;;2.00;100.00;98357.13;4977742;28;20535;-81
2022/04/10 01:51:42;;;;;;;8.37;3.70;;;1.20;99.90;;;1.92;100.00;98351.78;4976793;28;20479;-80
2022/04/10 01:54:13;;;;;;;5.23;3.73;;;1.10;99.90;;;1.94;100.00;98354.25;4974861;28;20447;-80
2022/04/10 01:56:43;;;;;;;9.00;3.10;;;1.10;99.90;;;1.94;100.00;98356.81;4977031;28;20486;-80
2022/04/10 01:59:13;;;;;;;5.87;4.30;;;1.20;99.90;;;1.93;100.00;98355.19;4976656;28;20462;-80
2022/04/10 02:01:43;;;;;;;4.53;2.80;;;1.20;99.90;;;1.93;100.00;98366.31;4974161;28;20474;-82
2022/04/10 02:04:13;;;;;;;4.40;3.27;;;1.10;99.90;;;1.91;100.00;98359.63;4973918;28;20526;-81
2022/04/10 02:06:42;;;;;;;4.53;3.20;;;1.10;99.90;;;1.88;100.00;98360.69;4974790;28;20516;-81
2022/04/10 02:09:13;;;;;;;5.53;3.00;;;1.00;99.90;;;1.90;100.00;98358.00;4975870;28;21169;-80
2022/04/10 02:11:42;;;;;;;5.27;3.23;;;1.10;99.90;;;1.89;100.00;98366.69;4974212;28;20465;-80
2022/04/10 02:14:13;;;;;;;5.17;3.43;;;1.10;99.90;;;1.88;100.00;98365.03;4973465;28;21171;-80
2022/04/10 02:16:43;;;;;;;4.97;3.70;;;1.10;99.90;;;1.87;100.00;98364.25;4975201;28;21064;-80
2022/04/10 02:19:13;;;;;;;5.00;3.63;;;1.10;99.90;;;1.82;100.00;98360.38;4973663;28;20834;-82
2022/04/10 02:21:42;;;;;;;4.40;3.13;;;1.00;99.90;;;1.80;100.00;98363.09;4974208;28;20787;-80
2022/04/10 02:24:14;;;;;;;5.27;3.50;;;1.00;99.90;;;1.80;100.00;98355.38;4974483;28;20494;-80
2022/04/10 02:26:44;;;;;;;6.77;4.70;;;1.10;99.90;;;1.78;100.00;98357.22;4974636;28;20445;-80
2022/04/10 02:29:15;;;;;;;4.53;3.40;;;0.90;99.90;;;1.77;100.00;98358.16;4976446;28;20551;-80
2022/04/10 02:31:45;;;;;;;7.50;4.50;;;0.80;99.90;;;1.73;100.00;98355.97;4975133;28;21058;-80
2022/04/10 02:34:14;;;;;;;4.20;3.40;;;0.80;99.90;;;1.75;100.00;98359.25;4976086;28;20466;-80
2022/04/10 02:36:44;;;;;;;6.37;3.53;;;0.80;99.90;;;1.75;100.00;98359.25;4976415;28;20457;-80
2022/04/10 02:39:15;;;;;;;5.70;3.47;;;0.90;99.90;;;1.72;100.00;98352.59;4976886;28;20446;-80
2022/04/10 02:41:46;;;;;;;4.70;3.60;;;0.90;99.90;;;1.70;100.00;98357.03;4981283;28;21083;-80
2022/04/10 02:44:14;;;;;;;8.20;3.70;;;0.80;99.90;;;1.64;100.00;98354.13;4980147;28;20484;-80
2022/04/10 02:46:43;;;;;;;5.20;2.90;;;0.70;99.90;;;1.58;100.00;98359.78;4980913;28;20493;-81
2022/04/10 02:49:13;;;;;;;6.83;3.60;;;0.60;99.90;;;1.57;100.00;98364.13;4979305;28;20457;-80
2022/04/10 02:51:42;;;;;;;7.03;3.90;;;0.60;99.90;;;1.59;100.00;98364.00;4980549;28;20517;-80
2022/04/10 02:54:12;;;;;;;5.40;3.73;;;0.70;99.90;;;1.60;100.00;98360.50;4979322;28;20548;-81
2022/04/10 02:56:44;;;;;;;3.83;3.33;;;0.70;99.90;;;1.60;100.00;98361.28;4981585;28;20554;-80
2022/04/10 02:59:14;;;;;;;5.57;3.63;;;0.80;99.90;;;1.60;100.00;98363.06;4980649;28;20458;-80
2022/04/10 03:01:44;;;;;;;3.40;3.10;;;0.70;99.90;;;1.56;100.00;98359.09;4978984;28;20464;-80
2022/04/10 03:04:15;;;;;;;3.80;3.40;;;0.70;99.90;;;1.59;100.00;98359.69;4982365;28;20498;-80
2022/04/10 03:06:45;;;;;;;7.07;3.67;;;0.80;99.90;;;1.61;100.00;98368.09;4980080;28;20468;-80
2022/04/10 03:09:15;;;;;;;9.47;3.63;;;0.80;99.90;;;1.60;100.00;98361.28;4980630;28;21492;-80
2022/04/10 03:11:47;;;;;;;12.97;4.43;;;0.70;99.90;;;1.63;100.00;98355.91;4979897;28;20465;-80
2022/04/10 03:14:16;;;;;;;6.10;3.83;;;0.80;99.90;;;1.67;100.00;98362.44;4978975;28;20460;-80
2022/04/10 03:16:45;;;;;;;4.57;3.63;;;0.90;99.90;;;1.67;100.00;98361.59;4978856;28;20446;-80
2022/04/10 03:19:16;;;;;;;7.70;4.17;;;0.90;99.90;;;1.68;100.00;98363.25;4977505;28;20998;-80
2022/04/10 03:21:45;;;;;;;4.40;3.77;;;0.80;99.90;;;1.67;100.00;98369.34;4978406;28;20859;-80
2022/04/10 03:24:16;;;;;;;4.93;3.70;;;0.90;99.90;;;1.61;100.00;98370.66;4979371;28;20483;-80
2022/04/10 03:26:48;;;;;;;7.27;3.83;;;0.90;99.90;;;1.67;100.00;98374.50;4978430;28;20886;-80
2022/04/10 03:29:18;;;;;;;7.03;3.80;;;0.90;99.90;;;1.69;100.00;98381.19;4979661;28;20475;-80
2022/04/10 03:31:48;;;;;;;4.30;3.53;;;1.00;99.90;;;1.71;100.00;98381.03;4982112;28;20498;-80
2022/04/10 03:34:17;;;;;;;4.00;3.60;;;1.10;99.90;;;1.74;100.00;98373.06;4985340;28;20458;-80
2022/04/10 03:36:47;;;;;;;8.80;3.87;;;1.00;99.90;;;1.72;100.00;98374.97;4981275;28;21012;-80
2022/04/10 03:39:16;;;;;;;10.90;4.30;;;1.00;99.90;;;1.72;100.00;98375.78;4982173;28;21122;-80
2022/04/10 03:41:48;;;;;;;6.30;3.97;;;1.00;99.90;;;1.75;100.00;98372.13;4979735;28;20502;-80
2022/04/10 03:44:17;;;;;;;10.47;3.50;;;1.10;99.90;;;1.77;100.00;98381.38;4979780;28;20977;-80
2022/04/10 03:46:48;;;;;;;5.20;3.43;;;1.20;99.90;;;1.79;100.00;98382.06;4979923;28;20450;-80
2022/04/10 03:49:17;;;;;;;8.83;4.30;;;1.10;99.90;;;1.81;100.00;98387.91;4979977;28;20473;-80
2022/04/10 03:51:46;;;;;;;7.47;4.03;;;1.10;99.90;;;1.84;100.00;98397.97;4982303;28;20451;-81
2022/04/10 03:54:16;;;;;;;6.20;3.97;;;1.10;99.90;;;1.84;100.00;98395.41;4979937;28;20523;-80
2022/04/10 03:56:47;;;;;;;8.97;3.90;;;1.10;99.90;;;1.87;100.00;98394.34;4980770;28;20474;-81
2022/04/10 03:59:17;;;;;;;6.37;3.60;;;1.20;99.90;;;1.89;100.00;98395.03;4980760;28;20441;-80
2022/04/10 04:01:47;;;;;;;5.93;4.47;;;1.20;99.90;;;1.91;100.00;98403.44;4980178;28;20452;-80
2022/04/10 04:04:17;;;;;;;7.00;3.90;;;1.20;99.90;;;1.92;100.00;98399.94;4979075;28;20492;-80
2022/04/10 04:06:47;;;;;;;9.27;4.37;;;1.30;99.90;;;1.94;100.00;98406.59;4979646;28;20456;-80
2022/04/10 04:09:16;;;;;;;4.10;3.47;;;1.20;99.90;;;1.96;100.00;98398.75;4979329;28;20507;-81
2022/04/10 04:11:48;;;;;;;7.00;4.20;;;1.20;99.90;;;1.95;100.00;98403.09;4983279;28;20446;-80
2022/04/10 04:14:19;;;;;;;7.20;4.13;;;1.20;99.90;;;1.98;100.00;98409.75;4981886;28;20594;-81
2022/04/10 04:16:49;;;;;;;4.70;3.50;;;1.20;99.90;;;1.98;100.00;98407.16;4979326;28;20955;-82
2022/04/10 04:19:19;;;;;;;6.07;4.33;;;1.20;99.90;;;2.00;100.00;98407.88;4979614;28;20834;-80
2022/04/10 04:21:49;;;;;;;5.00;3.80;;;1.10;99.90;;;2.00;100.00;98405.31;4982326;28;20526;-81
2022/04/10 04:24:19;;;;;;;4.50;3.80;;;1.30;99.90;;;1.98;100.00;98408.00;4979970;28;20497;-82
2022/04/10 04:26:50;;;;;;;9.67;4.30;;;1.30;99.90;;;1.97;100.00;98416.69;4979359;28;20963;-82
2022/04/10 04:29:19;;;;;;;6.17;3.93;;;1.20;99.90;;;1.97;100.00;98415.88;4980501;28;20551;-81
2022/04/10 04:31:48;;;;;;;5.20;3.40;;;1.20;99.90;;;1.99;100.00;98411.41;4979461;28;20472;-81
2022/04/10 04:34:18;;;;;;;9.63;4.70;;;1.20;99.90;;;2.01;100.00;98412.09;4979525;28;20475;-81
2022/04/10 04:36:48;;;;;;;6.73;4.20;;;1.30;99.90;;;2.04;100.00;98419.59;4981510;28;20559;-82
2022/04/10 04:39:18;;;;;;;8.13;4.50;;;1.30;99.90;;;2.03;100.00;98411.03;4980856;28;21013;-81
2022/04/10 04:41:49;;;;;;;5.30;4.33;;;1.30;99.90;;;2.03;100.00;98413.59;4979220;28;20846;-81
2022/04/10 04:44:19;;;;;;;7.13;4.40;;;1.30;99.90;;;2.07;100.00;98416.75;4982427;28;20533;-80
2022/04/10 04:46:48;;;;;;;6.63;4.63;;;1.30;99.90;;;2.11;100.00;98418.16;4985028;28;20973;-81
2022/04/10 04:49:21;;;;;;;6.20;4.10;;;1.30;99.90;;;2.14;100.00;98423.06;4982069;28;20475;-81
2022/04/10 04:51:51;;;;;;;6.70;4.50;;;1.40;99.90;;;2.14;100.00;98423.06;4981191;28;20453;-80
2022/04/10 04:54:21;;;;;;;6.00;4.33;;;1.30;99.90;;;2.16;100.00;98425.50;4982001;28;20486;-80
2022/04/10 04:56:53;;;;;;;6.47;3.97;;;1.40;99.90;;;2.14;100.00;98430.78;4983345;28;20462;-80
2022/04/10 04:59:24;;;;;;;6.00;4.07;;;1.40;99.90;;;2.14;100.00;98435.94;4983277;28;21468;-81
2022/04/10 05:01:55;;;;;;;6.67;4.40;;;1.40;99.90;;;2.14;100.00;98440.28;4982626;28;20462;-81
2022/04/10 05:04:46;;;;;;;12.30;4.37;;;1.50;99.90;;;2.14;100.00;98435.94;4985268;28;20444;-80
2022/04/10 05:07:16;;;;;;;5.20;4.03;;;1.40;99.90;;;2.16;100.00;98439.22;4982664;28;20484;-82
2022/04/10 05:09:46;;;;;;;8.27;4.93;;;1.50;99.90;;;2.14;100.00;98443.69;4980049;28;20485;-80
2022/04/10 05:12:19;;;;;;;4.00;3.60;;;1.50;99.90;;;2.15;100.00;98449.66;4980198;28;20505;-81
2022/04/10 05:14:48;;;;;;;7.97;5.00;;;1.50;99.90;;;2.16;100.00;98462.44;4983084;28;20484;-80
2022/04/10 05:17:19;;;;;;;7.93;3.90;;;1.40;99.90;;;2.19;100.00;98461.34;4981691;28;20530;-81
2022/04/10 05:19:49;;;;;;;7.83;4.80;;;1.40;99.90;;;2.25;100.00;98456.53;4981059;28;20448;-80
2022/04/10 05:22:19;;;;;;;5.87;4.67;;;1.50;99.90;;;2.27;100.00;98459.81;4980451;28;20574;-80
2022/04/10 05:24:48;;;;;;;6.53;4.13;;;1.50;99.90;;;2.29;100.00;98457.91;4982147;28;20445;-80
2022/04/10 05:27:21;;;;;;;6.77;4.97;;;1.60;99.90;;;2.30;100.00;98459.53;4981717;28;20458;-80
2022/04/10 05:29:51;;;;;;;6.83;4.47;;;1.60;99.90;;;2.32;100.00;98455.09;4982245;28;20838;-81
2022/04/10 05:32:21;;;;;;;4.60;3.90;;;1.70;99.90;;;2.34;100.00;98458.34;4981083;28;20491;-80
2022/04/10 05:34:52;;;;;;;5.30;4.80;;;1.70;99.90;;;2.38;100.00;98457.16;4979484;28;20461;-81
2022/04/10 05:37:23;;;;;;;8.63;4.83;;;1.60;99.90;;;2.42;100.00;98470.63;4980420;28;20936;-80
2022/04/10 05:39:53;;;;;;;6.83;4.50;;;1.70;99.90;;;2.42;100.00;98473.22;4983085;28;20453;-80
2022/04/10 05:42:24;;;;;;;6.80;4.90;;;1.70;99.90;;;2.41;100.00;98477.56;4978268;28;20504;-80
2022/04/10 05:45:01;;;;;;;7.53;5.23;;;1.70;99.90;;;2.43;100.00;98480.81;4979352;28;20458;-80
2022/04/10 05:47:32;;;;;;;7.60;5.00;;;1.70;99.90;;;2.48;100.00;98480.44;4980240;28;20465;-80
2022/04/10 05:50:02;;;;;;;7.70;5.10;;;1.70;99.90;;;2.49;100.00;98485.50;4979655;28;20466;-81
2022/04/10 05:52:32;;;;;;;7.63;4.83;;;1.70;99.90;;;2.49;100.00;98488.09;4979084;28;20460;-80
2022/04/10 05:55:03;;;;;;;10.50;5.53;;;1.80;99.90;;;2.47;100.00;98482.22;4979594;28;20468;-81
2022/04/10 05:57:34;;;;;;;5.60;4.40;;;1.80;99.90;;;2.48;100.00;98483.03;4977299;28;20493;-80
2022/04/10 06:00:08;;;;;;;7.13;4.70;;;1.70;99.90;;;2.51;100.00;98491.34;4979414;28;20510;-81
2022/04/10 06:02:39;;;;;;;11.80;4.87;;;1.70;99.90;;;2.58;100.00;98496.81;4978907;28;20464;-81
2022/04/10 06:05:10;;;;;;;7.40;5.37;;;1.80;99.90;;;2.62;100.00;98499.97;4980893;28;20474;-81
2022/04/10 06:07:41;;;;;;;10.30;5.77;;;1.90;99.90;;;2.64;100.00;98500.69;4977753;28;20471;-81
2022/04/10 06:10:11;;;;;;;8.13;4.60;;;2.00;99.90;;;2.67;100.00;98498.66;4977636;28;21031;-81
2022/04/10 06:12:45;;;;;;;8.30;5.93;;;2.00;99.90;;;2.72;100.00;98495.69;4981173;28;20471;-80
2022/04/10 06:15:18;;;;;;;9.40;5.40;;;2.00;99.90;;;2.76;100.00;98497.06;4981118;28;21145;-81
2022/04/10 06:17:48;;;;;;;18.10;5.67;;;2.00;99.90;;;2.80;100.00;98498.44;4977435;28;20470;-81
2022/04/10 06:20:19;;;;;;;8.70;4.97;;;2.10;99.90;;;2.84;100.00;98494.69;4976926;28;20469;-82
2022/04/10 06:22:50;;;;;;;8.03;5.30;;;2.20;99.90;;;2.89;100.00;98502.84;4980259;28;20523;-80
2022/04/10 06:25:21;;;;;;;9.10;5.97;;;2.10;99.90;;;2.91;100.00;98496.63;4977482;28;20566;-83
2022/04/10 06:27:58;;;;;;;15.50;5.37;;;2.20;99.90;;;2.94;100.00;98505.88;4979136;28;20509;-81
2022/04/10 06:30:29;;;;;;;6.70;5.13;;;2.20;99.90;;;2.99;100.00;98498.53;4978017;28;20495;-80
2022/04/10 06:32:58;;;;;;;8.50;5.90;;;2.20;99.90;;;3.03;100.00;98510.25;4981004;28;20467;-81
2022/04/10 06:35:30;;;;;;;7.77;5.33;;;2.20;99.90;;;3.05;100.00;98511.75;4979317;28;20458;-81
2022/04/10 06:38:04;;;;;;;7.43;5.33;;;2.30;99.90;;;3.06;100.00;98510.00;4978106;28;20470;-81
2022/04/10 06:40:33;;;;;;;8.13;5.83;;;2.40;99.90;;;3.06;100.00;98510.00;4979005;28;20469;-81
2022/04/10 06:43:08;;;;;;;13.10;6.10;;;2.40;99.90;;;3.08;100.00;98510.72;4974738;28;20538;-81
2022/04/10 06:45:37;;;;;;;9.20;5.57;;;2.50;99.90;;;3.13;100.00;98513.72;4977238;28;20463;-81
2022/04/10 06:48:09;;;;;;;9.20;6.53;;;2.40;99.90;;;3.19;100.00;98509.81;4977379;28;20467;-81
2022/04/10 06:50:38;;;;;;;7.50;5.80;;;2.50;99.90;;;3.22;100.00;98507.78;4976454;28;20464;-81
2022/04/10 06:53:08;;;;;;;9.13;5.77;;;2.60;99.90;;;3.27;100.00;98508.19;4978971;28;20477;-80
2022/04/10 06:55:42;;;;;;;10.37;6.40;;;2.60;99.90;;;3.30;100.00;98507.09;4975767;28;20463;-81
2022/04/10 06:58:17;;;;;;;8.60;6.00;;;2.60;99.90;;;3.33;100.00;98501.72;4973606;28;20543;-81
2022/04/10 07:00:47;;;;;;;9.93;5.90;;;2.50;99.90;;;3.39;100.00;98501.19;4976743;28;20469;-81
2022/04/10 07:03:17;;;;;;;8.00;5.67;;;2.60;99.90;;;3.46;100.00;98507.47;4976783;28;20475;-81
2022/04/10 07:05:48;;;;;;;10.73;6.20;;;2.80;99.90;;;3.50;100.00;98514.84;4977726;28;20459;-81
2022/04/10 07:08:18;;;;;;;10.67;6.17;;;2.80;99.90;;;3.55;100.00;98523.00;4980826;28;20473;-81
2022/04/10 07:10:49;;;;;;;9.00;5.77;;;2.90;99.90;;;3.62;100.00;98519.88;4979248;28;20491;-81
2022/04/10 07:13:29;;;;;;;10.70;6.33;;;2.90;99.90;;;3.67;100.00;98512.56;4981311;28;20466;-80
2022/04/10 07:16:00;;;;;;;8.13;5.87;;;2.90;99.90;;;3.74;100.00;98513.66;4980555;28;20913;-80
2022/04/10 07:18:37;;;;;;;9.00;6.00;;;3.00;99.90;;;3.79;100.00;98511.47;4982263;28;20474;-81
2022/04/10 07:21:07;;;;;;;8.47;5.77;;;3.10;99.90;;;3.83;100.00;98512.84;4979646;28;20477;-81
2022/04/10 07:23:42;;;;;;;6.67;5.70;;;3.30;99.90;;;3.87;100.00;98516.81;4981012;28;20487;-80
2022/04/10 07:26:13;;;;;;;11.27;5.70;;;3.20;99.90;;;3.93;100.00;98516.28;4978937;28;21176;-80
2022/04/10 07:28:44;;;;;;;9.03;5.70;;;3.40;99.90;;;3.96;100.00;98518.59;4980690;28;20469;-81
2022/04/10 07:31:15;;;;;;;9.00;5.23;;;3.50;99.90;;;3.97;100.00;98517.66;4980123;28;20561;-81
2022/04/10 07:33:45;;;;;;;10.70;5.97;;;3.50;99.90;;;4.01;100.00;98519.03;4981875;28;20465;-80
2022/04/10 07:36:17;;;;;;;11.40;6.67;;;3.60;99.90;;;4.04;100.00;98519.56;4980475;28;20499;-80
2022/04/10 07:38:48;;;;;;;9.67;5.90;;;3.70;99.90;;;4.08;100.00;98535.66;4982760;28;20471;-81
2022/04/10 07:41:19;;;;;;;10.20;5.93;;;3.70;99.90;;;4.10;100.00;98532.91;4981074;28;21052;-81
2022/04/10 07:43:51;;;;;;;7.90;5.37;;;3.70;99.90;;;4.15;100.00;98535.94;4981309;28;20967;-81
2022/04/10 07:49:11;;;;;;;7.63;5.20;;;3.70;99.90;;;4.30;100.00;98548.34;4980551;28;20469;-81
2022/04/10 07:51:41;;;;;;;7.63;5.90;;;3.80;99.90;;;4.35;100.00;98550.53;4978686;28;20503;-81
2022/04/10 07:54:11;;;;;;;7.70;5.43;;;3.90;99.90;;;4.38;100.00;98543.28;4980450;28;21132;-80
2022/04/10 07:56:41;;;;;;;5.77;5.23;;;3.90;99.90;;;4.45;100.00;98548.75;4984293;28;20597;-80
2022/04/10 07:59:12;;;;;;;10.77;5.30;;;3.80;99.90;;;4.52;100.00;98550.66;4980503;28;20459;-80
2022/04/10 08:01:42;;;;;;;6.20;4.93;;;3.90;99.90;;;4.62;100.00;98555.84;4981315;28;20930;-81
2022/04/10 08:04:11;;;;;;;12.20;6.23;;;4.00;99.90;;;4.66;100.00;98546.00;4979656;28;20465;-80
2022/04/10 08:06:42;;;;;;;13.13;6.40;;;4.20;99.90;;;4.73;100.00;98553.09;4980213;28;21286;-82
2022/04/10 08:09:12;;;;;;;8.33;5.30;;;4.20;99.90;;;4.78;100.00;98550.13;4979173;28;20553;-81
2022/04/10 08:11:41;;;;;;;8.93;6.47;;;4.30;99.90;;;4.86;100.00;98558.81;4979639;28;21027;-80
2022/04/10 08:14:12;;;;;;;10.50;6.00;;;4.40;99.90;;;4.93;100.00;98553.88;4980419;28;20499;-81
2022/04/10 08:16:42;;;;;;;9.77;5.60;;;4.50;99.90;;;4.98;100.00;98556.91;4979635;28;20460;-81
2022/04/10 08:19:13;;;;;;;7.47;5.50;;;4.60;99.90;;;4.98;100.00;98562.91;4979625;28;20494;-80
2022/04/10 08:21:42;;;;;;;7.63;5.10;;;4.70;99.90;;;5.04;100.00;98561.50;4979805;28;20471;-81
2022/04/10 08:24:12;;;;;;;8.50;5.60;;;4.70;99.90;;;5.13;100.00;98567.66;4977870;28;20479;-81
2022/04/10 08:26:43;;;;;;;14.40;8.20;;;4.80;99.90;;;5.21;100.00;98560.78;4978650;28;20493;-81
2022/04/10 08:29:14;;;;;;;7.47;5.87;;;4.80;99.90;;;5.25;100.00;98559.56;4979365;28;20574;-81
2022/04/10 08:31:45;;;;;;;9.50;5.90;;;4.90;99.90;;;5.30;100.00;98559.97;4980604;28;20468;-80
2022/04/10 08:34:15;;;;;;;13.33;5.60;;;5.00;99.90;;;5.36;100.00;98556.81;4978967;28;20546;-79
2022/04/10 08:36:45;;;;;;;6.40;4.10;;;5.10;99.90;;;5.42;100.00;98561.41;4980529;28;20469;-81
2022/04/10 08:39:16;;;;;;;10.30;5.60;;;5.10;99.90;;;5.50;100.00;98564.13;4982081;28;20831;-81
2022/04/10 08:41:46;;;;;;;13.37;5.30;;;5.20;99.90;;;5.56;100.00;98558.34;4978255;28;21536;-82
2022/04/10 08:44:19;;;;;;;7.90;5.30;;;5.20;99.90;;;5.68;100.00;98563.38;4980689;28;20468;-82
2022/04/10 08:46:50;;;;;;;5.23;4.10;;;5.30;99.90;;;5.75;100.00;98567.84;4981727;28;20475;-81
2022/04/10 08:49:24;;;;;;;8.50;4.50;;;5.40;99.90;;;5.78;100.00;98562.38;4980402;28;20935;-82
2022/04/10 08:51:55;;;;;;;6.70;5.10;;;5.30;99.90;;;5.88;100.00;98578.72;4980413;28;20529;-81
2022/04/10 08:54:26;;;;;;;8.50;4.93;;;5.40;99.90;;;5.97;100.00;98582.25;4977674;28;20456;-81
2022/04/10 08:56:58;;;;;;;7.70;4.40;;;5.40;99.90;;;6.06;100.00;98581.38;4978631;28;20573;-81
2022/04/10 08:59:29;;;;;;;6.43;3.97;;;5.50;99.90;;;6.14;100.00;98593.63;4978951;28;20471;-82
2022/04/10 09:01:58;;;;;;;11.40;4.90;;;5.70;99.90;;;6.21;100.00;98579.94;4980180;28;20912;-81
2022/04/10 09:04:29;;;;;;;6.93;5.07;;;5.80;99.90;;;6.26;100.00;98585.47;4979463;28;20464;-81
2022/04/10 09:07:02;;;;;;;8.70;5.30;;;5.90;99.90;;;6.32;100.00;98582.28;4977520;28;21006;-81
2022/04/10 09:09:33;;;;;;;9.70;4.50;;;6.00;99.90;;;6.38;100.00;98580.91;4978265;28;20492;-81
2022/04/10 09:12:02;;;;;;;7.03;3.70;;;6.00;99.90;;;6.38;100.00;98576.53;4977812;28;20467;-81
2022/04/10 09:14:40;;;;;;;8.83;4.20;;;6.00;99.90;;;6.45;100.00;98577.56;4980501;28;20476;-81
2022/04/10 09:17:16;;;;;;;8.23;4.60;;;6.00;99.90;;;6.47;100.00;98575.63;4980524;28;20467;-81
2022/04/10 09:19:47;;;;;;;11.07;4.33;;;6.10;99.90;;;6.49;100.00;98576.28;4979472;28;20472;-81
2022/04/10 09:22:25;;;;;;;174.50;71.90;;;6.10;99.90;;;6.45;100.00;98574.16;4979548;28;20460;-81
2022/04/10 09:25:08;;;;;;;9.97;5.43;;;6.00;99.90;;;6.50;100.00;98571.91;4980077;28;20471;-81
2022/04/10 09:27:41;;;;;;;33.53;14.43;;;6.00;99.90;;;6.52;100.00;98573.44;4979755;28;20489;-81
2022/04/10 09:30:14;;;;;;;19.17;5.30;;;6.10;99.90;;;6.53;100.00;98569.84;4977606;28;20468;-81
2022/04/10 09:32:50;;;;;;;7.73;3.43;;;6.10;99.90;;;6.54;100.00;98565.47;4981187;28;20464;-80
2022/04/10 09:35:24;;;;;;;8.43;3.33;;;6.20;99.90;;;6.56;100.00;98573.91;4980555;28;20543;-80
2022/04/10 09:37:56;;;;;;;8.03;3.17;;;6.10;99.90;;;6.62;100.00;98577.72;4979694;28;20535;-80
2022/04/10 09:40:32;;;;;;;12.03;4.03;;;6.10;99.90;;;6.68;100.00;98564.13;4982520;28;20507;-80
2022/04/10 09:43:04;;;;;;;4.87;3.20;;;6.20;99.90;;;6.74;100.00;98573.91;4980186;28;20863;-80
2022/04/10 09:45:39;;;;;;;11.80;3.60;;;6.30;99.90;;;6.80;100.00;98568.13;4982181;28;20458;-80
2022/04/10 09:48:21;;;;;;;7.30;2.90;;;6.40;99.90;;;6.86;100.00;98575.31;4980850;28;20475;-81
2022/04/10 09:50:53;;;;;;;20.87;4.03;;;6.50;99.90;;;6.91;100.00;98567.88;4982966;28;20452;-80
2022/04/10 09:53:24;;;;;;;8.20;3.60;;;6.60;99.90;;;6.97;100.00;98569.91;4981383;28;20456;-80
2022/04/10 09:55:57;;;;;;;4.50;2.80;;;6.50;99.90;;;7.02;100.00;98570.25;4980357;28;20508;-80
2022/04/10 09:58:29;;;;;;;5.80;3.37;;;6.60;99.90;;;7.02;100.00;98573.66;4981638;28;20445;-81
2022/04/10 10:01:03;;;;;;;6.90;2.70;;;6.60;99.90;;;7.04;100.00;98573.53;4979108;28;20461;-80
2022/04/10 10:03:40;;;;;;;7.07;3.13;;;6.60;99.90;;;7.06;100.00;98569.78;4976673;28;20440;-81
2022/04/10 10:06:12;;;;;;;4.93;2.77;;;6.50;99.90;;;7.11;100.00;98569.34;4978713;28;20510;-80
2022/04/10 10:08:43;;;;;;;15.40;3.27;;;6.70;99.90;;;7.16;98.38;98568.88;4976854;28;20869;-80
2022/04/10 10:11:14;;;;;;;5.37;2.87;;;6.70;99.90;;;7.23;99.41;98564.69;4973934;28;20456;-80
2022/04/10 10:13:43;;;;;;;7.10;3.23;;;6.80;99.90;;;7.30;100.00;98563.94;4974602;28;20471;-81
2022/04/10 10:16:16;;;;;;;5.40;2.80;;;6.80;99.90;;;7.40;100.00;98559.44;4973907;28;20896;-80
2022/04/10 10:18:47;;;;;;;5.80;3.40;;;6.90;99.90;;;7.46;100.00;98563.22;4976950;28;21052;-80
2022/04/10 10:21:18;;;;;;;6.70;3.47;;;6.90;99.90;;;7.51;100.00;98566.16;4975418;28;20452;-81
2022/04/10 10:23:54;;;;;;;6.87;3.33;;;7.00;99.90;;;7.48;99.54;98562.09;4974464;28;20555;-80
2022/04/10 10:27:05;;;;;;;13.47;3.30;;;7.00;99.90;;;7.44;96.72;98560.75;4975429;28;20451;-80
2022/04/10 10:30:07;;;;;;;6.07;3.43;;;7.00;99.90;;;7.41;94.67;98565.47;4982237;28;20487;-80
2022/04/10 10:32:45;;;;;;;6.17;2.80;;;7.00;99.90;;;7.44;94.84;98562.53;4978923;28;20457;-80
2022/04/10 10:35:33;;;;;;;7.70;2.87;;;7.00;99.90;;;7.45;91.26;98554.59;4979633;28;20447;-80
2022/04/10 10:38:03;;;;;;;6.10;2.40;;;7.10;99.90;;;7.47;90.77;98555.25;4980705;28;20955;-81
2022/04/10 10:40:33;;;;;;;7.10;2.60;;;7.00;99.90;;;7.53;89.15;98548.63;4978205;28;20448;-80
2022/04/10 10:43:05;;;;;;;9.40;4.10;;;7.10;99.70;;;7.57;90.72;98547.31;4979628;28;20470;-80
2022/04/10 10:45:41;;;;;;;6.07;3.13;;;7.10;99.90;;;7.60;91.19;98557.44;4980866;28;20518;-80
2022/04/10 10:48:40;;;;;;;6.97;3.03;;;7.10;99.90;;;7.62;91.59;98554.66;4983486;28;20495;-81